createdAt,value
2022-12-01T00:01:19.872Z,102385.22
2022-12-01T00:03:49.747Z,102378.78
2022-12-01T00:06:19.849Z,102382.34
2022-12-01T00:09:06.591Z,102380.50
2022-12-01T00:11:34.813Z,102379.22
2022-12-01T00:14:02.321Z,102375.34
2022-12-01T00:16:29.595Z,102379.03
2022-12-01T00:18:56.825Z,102372.50
2022-12-01T00:21:25.221Z,102371.63
2022-12-01T00:23:54.838Z,102371.56
2022-12-01T00:26:22.800Z,102375.00
2022-12-01T00:28:57.070Z,102376.03
2022-12-01T00:31:24.151Z,102378.88
2022-12-01T00:33:51.269Z,102369.81
2022-12-01T00:36:18.187Z,102370.66
2022-12-01T00:38:45.468Z,102372.88
2022-12-01T00:41:12.439Z,102365.66
2022-12-01T00:43:39.891Z,102370.72
2022-12-01T00:46:06.951Z,102359.84
2022-12-01T00:48:34.290Z,102364.31
2022-12-01T00:51:01.114Z,102362.38
2022-12-01T00:53:27.876Z,102361.88
2022-12-01T00:55:54.827Z,102367.13
2022-12-01T00:58:22.750Z,102364.72
2022-12-01T01:00:50.160Z,102372.72
2022-12-01T01:03:17.115Z,102374.50
2022-12-01T01:05:44.088Z,102364.75
2022-12-01T01:08:14.466Z,102368.09
2022-12-01T01:10:43.402Z,102367.78
2022-12-01T01:13:10.815Z,102369.97
2022-12-01T01:15:38.050Z,102373.31
2022-12-01T01:18:06.364Z,102372.72
2022-12-01T01:20:34.220Z,102373.25
2022-12-01T01:23:01.065Z,102376.78
2022-12-01T01:25:28.097Z,102379.75
2022-12-01T01:27:54.904Z,102382.25
2022-12-01T01:30:21.737Z,102377.78
2022-12-01T01:32:48.569Z,102372.97
2022-12-01T01:35:15.483Z,102384.34
2022-12-01T01:37:42.326Z,102378.47
2022-12-01T01:40:09.709Z,102387.72
2022-12-01T01:42:36.433Z,102384.75
2022-12-01T01:45:03.987Z,102387.13
2022-12-01T01:47:34.960Z,102388.91
2022-12-01T01:50:14.880Z,102384.06
2022-12-01T01:53:03.756Z,102397.88
2022-12-01T01:55:33.908Z,102405.88
2022-12-01T01:58:02.908Z,102394.97
2022-12-01T02:00:29.648Z,102406.91
2022-12-01T02:02:58.151Z,102403.19
2022-12-01T02:05:29.597Z,102411.50
2022-12-01T02:07:58.579Z,102412.97
2022-12-01T02:10:59.383Z,102413.19
2022-12-01T02:13:39.132Z,102414.50
2022-12-01T02:16:25.994Z,102420.69
2022-12-01T02:18:52.859Z,102416.94
2022-12-01T02:21:54.608Z,102434.34
2022-12-01T02:24:21.213Z,102438.91
2022-12-01T02:27:01.724Z,102441.66
2022-12-01T02:29:37.631Z,102431.66
2022-12-01T02:32:11.814Z,102430.66
2022-12-01T02:34:48.610Z,102437.03
2022-12-01T02:37:30.624Z,102444.19
2022-12-01T02:40:10.726Z,102445.22
2022-12-01T02:42:49.901Z,102446.28
2022-12-01T02:45:29.601Z,102448.81
2022-12-01T02:48:01.040Z,102449.59
2022-12-01T02:50:32.589Z,102449.50
2022-12-01T02:53:01.671Z,102456.94
2022-12-01T02:55:28.486Z,102451.50
2022-12-01T02:57:55.218Z,102453.28
2022-12-01T03:00:22.114Z,102458.56
2022-12-01T03:03:18.056Z,102459.75
2022-12-01T03:05:58.765Z,102460.53
2022-12-01T03:08:35.819Z,102453.97
2022-12-01T03:11:03.268Z,102456.13
2022-12-01T03:13:56.397Z,102460.53
2022-12-01T03:16:53.570Z,102459.53
2022-12-01T03:19:42.118Z,102455.06
2022-12-01T03:22:23.158Z,102458.75
2022-12-01T03:24:53.580Z,102468.91
2022-12-01T03:27:24.354Z,102467.78
2022-12-01T03:29:56.266Z,102463.44
2022-12-01T03:32:32.260Z,102460.69
2022-12-01T03:35:04.893Z,102467.78
2022-12-01T03:37:38.607Z,102452.22
2022-12-01T03:40:09.342Z,102454.22
2022-12-01T03:42:41.988Z,102449.84
2022-12-01T03:45:15.247Z,102457.06
2022-12-01T03:47:42.136Z,102461.38
2022-12-01T03:50:13.953Z,102466.84
2022-12-01T03:53:03.539Z,102472.22
2022-12-01T03:55:35.441Z,102473.28
2022-12-01T03:58:05.542Z,102472.22
2022-12-01T04:00:33.150Z,102473.25
2022-12-01T04:03:05.013Z,102474.09
2022-12-01T04:05:34.539Z,102475.00
2022-12-01T04:08:01.641Z,102469.69
2022-12-01T04:10:28.541Z,102474.00
2022-12-01T04:12:59.315Z,102477.78
2022-12-01T04:15:27.243Z,102485.84
2022-12-01T04:17:54.357Z,102490.31
2022-12-01T04:20:21.994Z,102488.97
2022-12-01T04:22:49.133Z,102492.78
2022-12-01T04:25:16.037Z,102493.63
2022-12-01T04:27:42.913Z,102493.47
2022-12-01T04:30:10.849Z,102493.38
2022-12-01T04:32:42.506Z,102494.53
2022-12-01T04:35:11.594Z,102502.53
2022-12-01T04:37:39.214Z,102510.53
2022-12-01T04:40:07.065Z,102513.50
2022-12-01T04:42:33.916Z,102519.56
2022-12-01T04:45:00.694Z,102538.47
2022-12-01T04:47:27.372Z,102527.84
2022-12-01T04:49:54.562Z,102532.47
2022-12-01T04:52:21.354Z,102542.38
2022-12-01T04:54:48.075Z,102539.69
2022-12-01T04:57:14.812Z,102544.72
2022-12-01T04:59:41.515Z,102546.63
2022-12-01T05:02:08.344Z,102538.19
2022-12-01T05:04:38.592Z,102555.63
2022-12-01T05:07:05.485Z,102556.41
2022-12-01T05:09:32.379Z,102560.88
2022-12-01T05:11:59.130Z,102551.81
2022-12-01T05:14:29.780Z,102562.63
2022-12-01T05:16:58.104Z,102567.13
2022-12-01T05:19:43.321Z,102568.16
2022-12-01T05:22:10.153Z,102576.28
2022-12-01T05:24:36.859Z,102584.44
2022-12-01T05:27:03.644Z,102577.25
2022-12-01T05:29:33.116Z,102578.25
2022-12-01T05:31:59.966Z,102572.88
2022-12-01T05:34:26.863Z,102572.88
2022-12-01T05:36:57.194Z,102580.94
2022-12-01T05:39:44.138Z,102581.88
2022-12-01T05:42:10.931Z,102581.72
2022-12-01T05:44:37.670Z,102580.81
2022-12-01T05:47:04.480Z,102588.97
2022-12-01T05:49:31.267Z,102581.69
2022-12-01T05:51:57.982Z,102580.66
2022-12-01T05:54:24.711Z,102581.66
2022-12-01T05:56:51.385Z,102579.84
2022-12-01T05:59:18.102Z,102583.44
2022-12-01T06:01:44.891Z,102586.06
2022-12-01T06:04:11.867Z,102585.97
2022-12-01T06:06:38.875Z,102596.41
2022-12-01T06:09:05.809Z,102596.53
2022-12-01T06:11:32.600Z,102593.91
2022-12-01T06:13:59.347Z,102596.75
2022-12-01T06:16:26.152Z,102602.19
2022-12-01T06:18:53.013Z,102601.28
2022-12-01T06:21:19.823Z,102593.91
2022-12-01T06:23:46.539Z,102593.84
2022-12-01T06:26:13.247Z,102600.00
2022-12-01T06:28:40.015Z,102598.25
2022-12-01T06:31:06.770Z,102599.16
2022-12-01T06:33:33.676Z,102599.31
2022-12-01T06:36:05.260Z,102601.06
2022-12-01T06:38:33.978Z,102600.09
2022-12-01T06:41:01.249Z,102614.75
2022-12-01T06:43:28.334Z,102609.94
2022-12-01T06:46:00.874Z,102618.38
2022-12-01T06:48:28.944Z,102613.00
2022-12-01T06:51:00.233Z,102626.41
2022-12-01T06:53:28.623Z,102618.31
2022-12-01T06:56:03.608Z,102623.63
2022-12-01T06:58:31.295Z,102629.72
2022-12-01T07:00:59.172Z,102625.31
2022-12-01T07:03:26.277Z,102629.63
2022-12-01T07:05:58.878Z,102638.59
2022-12-01T07:08:26.985Z,102641.19
2022-12-01T07:11:01.917Z,102651.41
2022-12-01T07:13:33.405Z,102648.66
2022-12-01T07:16:04.174Z,102654.75
2022-12-01T07:18:31.593Z,102648.50
2022-12-01T07:21:03.824Z,102653.97
2022-12-01T07:23:31.560Z,102654.94
2022-12-01T07:26:02.777Z,102655.03
2022-12-01T07:28:30.466Z,102670.81
2022-12-01T07:31:14.936Z,102664.75
2022-12-01T07:33:42.794Z,102664.94
2022-12-01T07:36:12.107Z,102672.88
2022-12-01T07:38:40.218Z,102675.66
2022-12-01T07:41:13.296Z,102671.41
2022-12-01T07:43:41.053Z,102676.84
2022-12-01T07:46:18.786Z,102677.69
2022-12-01T07:48:50.126Z,102686.44
2022-12-01T07:51:20.287Z,102683.91
2022-12-01T07:53:49.594Z,102686.16
2022-12-01T07:56:18.520Z,102686.44
2022-12-01T07:58:46.244Z,102679.00
2022-12-01T08:01:16.897Z,102685.53
2022-12-01T08:03:44.818Z,102687.28
2022-12-01T08:06:13.738Z,102696.91
2022-12-01T08:08:42.017Z,102688.94
2022-12-01T08:11:18.640Z,102687.91
2022-12-01T08:13:46.281Z,102695.19
2022-12-01T08:16:15.980Z,102703.09
2022-12-01T08:18:45.303Z,102695.06
2022-12-01T08:21:15.206Z,102695.78
2022-12-01T08:23:43.004Z,102695.78
2022-12-01T08:26:15.772Z,102694.16
2022-12-01T08:28:46.422Z,102692.31
2022-12-01T08:31:15.735Z,102695.00
2022-12-01T08:33:45.438Z,102703.09
2022-12-01T08:36:13.202Z,102702.88
2022-12-01T08:38:43.844Z,102711.13
2022-12-01T08:41:12.247Z,102703.81
2022-12-01T08:43:57.320Z,102703.75
2022-12-01T08:46:31.404Z,102721.09
2022-12-01T08:48:58.829Z,102718.28
2022-12-01T08:51:26.763Z,102722.59
2022-12-01T08:53:55.730Z,102726.81
2022-12-01T08:56:28.353Z,102729.47
2022-12-01T08:58:56.292Z,102740.53
2022-12-01T09:01:25.789Z,102735.06
2022-12-01T09:04:05.886Z,102736.34
2022-12-01T09:06:38.552Z,102750.19
2022-12-01T09:09:06.937Z,102750.38
2022-12-01T09:11:34.491Z,102758.28
2022-12-01T09:14:01.812Z,102751.66
2022-12-01T09:16:29.300Z,102755.16
2022-12-01T09:18:57.751Z,102747.19
2022-12-01T09:21:30.642Z,102755.44
2022-12-01T09:23:58.288Z,102755.44
2022-12-01T09:26:26.445Z,102761.53
2022-12-01T09:28:55.309Z,102755.06
2022-12-01T09:31:25.980Z,102762.44
2022-12-01T09:34:05.416Z,102762.97
2022-12-01T09:36:34.035Z,102771.59
2022-12-01T09:39:01.717Z,102771.88
2022-12-01T09:41:40.148Z,102774.50
2022-12-01T09:44:31.331Z,102774.44
2022-12-01T09:47:20.605Z,102775.09
2022-12-01T09:50:06.691Z,102779.84
2022-12-01T09:52:48.126Z,102777.59
2022-12-01T09:55:17.837Z,102777.72
2022-12-01T09:57:50.491Z,102776.88
2022-12-01T10:00:21.805Z,102778.91
2022-12-01T10:03:17.121Z,102773.53
2022-12-01T10:06:18.641Z,102776.22
2022-12-01T10:08:40.294Z,102780.00
2022-12-01T10:11:33.697Z,102781.75
2022-12-01T10:14:01.596Z,102779.75
2022-12-01T10:16:40.416Z,102780.69
2022-12-01T10:19:20.112Z,102774.81
2022-12-01T10:22:00.148Z,102772.91
2022-12-01T10:24:33.434Z,102772.91
2022-12-01T10:27:42.451Z,102773.19
2022-12-01T10:30:15.676Z,102781.06
2022-12-01T10:32:56.400Z,102775.94
2022-12-01T10:35:36.294Z,102779.56
2022-12-01T10:38:15.605Z,102774.94
2022-12-01T10:40:44.549Z,102784.94
2022-12-01T10:43:14.316Z,102779.13
2022-12-01T10:45:45.055Z,102784.88
2022-12-01T10:48:19.480Z,102775.97
2022-12-01T10:50:52.065Z,102776.78
2022-12-01T10:53:36.666Z,102779.34
2022-12-01T10:56:12.340Z,102777.53
2022-12-01T10:59:00.133Z,102765.94
2022-12-01T11:01:35.873Z,102779.44
2022-12-01T11:04:03.524Z,102778.13
2022-12-01T11:06:31.345Z,102780.16
2022-12-01T11:09:05.043Z,102789.44
2022-12-01T11:11:39.961Z,102781.41
2022-12-01T11:14:22.994Z,102788.53
2022-12-01T11:16:54.105Z,102781.13
2022-12-01T11:19:27.661Z,102785.38
2022-12-01T11:21:58.064Z,102784.59
2022-12-01T11:24:33.925Z,102783.31
2022-12-01T11:27:01.520Z,102779.25
2022-12-01T11:29:37.772Z,102786.66
2022-12-01T11:32:17.921Z,102784.41
2022-12-01T11:34:52.506Z,102785.28
2022-12-01T11:37:22.584Z,102784.47
2022-12-01T11:39:52.103Z,102796.66
2022-12-01T11:42:29.834Z,102803.91
2022-12-01T11:45:03.652Z,102806.09
2022-12-01T11:47:30.948Z,102809.81
2022-12-01T11:50:01.597Z,102816.19
2022-12-01T11:52:46.634Z,102814.78
2022-12-01T11:55:16.593Z,102803.03
2022-12-01T11:57:46.191Z,102815.41
2022-12-01T12:00:19.591Z,102817.53
2022-12-01T12:03:14.571Z,102819.50
2022-12-01T12:06:31.886Z,102823.84
2022-12-01T12:09:29.478Z,102833.03
2022-12-01T12:12:10.205Z,102832.00
2022-12-01T12:14:43.042Z,102828.78
2022-12-01T12:17:16.855Z,102833.13
2022-12-01T12:20:10.552Z,102828.66
2022-12-01T12:22:55.755Z,102834.81
2022-12-01T12:25:23.484Z,102842.06
2022-12-01T12:28:29.305Z,102853.63
2022-12-01T12:31:19.060Z,102850.88
2022-12-01T12:34:04.930Z,102840.72
2022-12-01T12:36:43.802Z,102853.50
2022-12-01T12:39:46.737Z,102855.03
2022-12-01T12:42:45.633Z,102845.94
2022-12-01T12:45:20.358Z,102855.41
2022-12-01T12:48:07.780Z,102852.44
2022-12-01T12:50:55.715Z,102862.69
2022-12-01T12:53:30.387Z,102856.84
2022-12-01T12:56:05.270Z,102862.38
2022-12-01T12:58:40.365Z,102869.81
2022-12-01T13:01:18.217Z,102882.22
2022-12-01T13:03:54.188Z,102882.53
2022-12-01T13:06:34.864Z,102881.31
2022-12-01T13:09:12.738Z,102884.34
2022-12-01T13:11:57.640Z,102886.63
2022-12-01T13:14:42.948Z,102878.41
2022-12-01T13:17:18.963Z,102879.34
2022-12-01T13:19:47.618Z,102890.81
2022-12-01T13:22:17.447Z,102891.91
2022-12-01T13:24:45.053Z,102890.94
2022-12-01T13:27:13.329Z,102890.97
2022-12-01T13:29:47.026Z,102890.97
2022-12-01T13:32:47.420Z,102887.47
2022-12-01T13:35:37.991Z,102884.59
2022-12-01T13:38:30.834Z,102871.50
2022-12-01T13:41:19.778Z,102873.97
2022-12-01T13:44:20.268Z,102872.28
2022-12-01T13:46:47.539Z,102874.06
2022-12-01T13:49:51.375Z,102877.72
2022-12-01T13:52:21.808Z,102872.28
2022-12-01T13:55:01.410Z,102870.63
2022-12-01T13:57:31.970Z,102878.50
2022-12-01T13:59:59.025Z,102872.53
2022-12-01T14:02:29.093Z,102880.56
2022-12-01T14:05:24.934Z,102879.63
2022-12-01T14:07:53.971Z,102867.88
2022-12-01T14:10:25.970Z,102869.03
2022-12-01T14:12:56.865Z,102874.19
2022-12-01T14:15:31.101Z,102879.75
2022-12-01T14:18:39.687Z,102877.13
2022-12-01T14:21:10.661Z,102881.47
2022-12-01T14:23:58.614Z,102870.88
2022-12-01T14:26:28.687Z,102883.44
2022-12-01T14:28:55.744Z,102884.66
2022-12-01T14:31:25.127Z,102899.59
2022-12-01T14:33:59.214Z,102896.81
2022-12-01T14:36:53.011Z,102905.94
2022-12-01T14:39:24.427Z,102901.53
2022-12-01T14:42:06.751Z,102910.47
2022-12-01T14:44:43.671Z,102916.53
2022-12-01T14:47:13.518Z,102902.28
2022-12-01T14:49:58.725Z,102906.97
2022-12-01T14:52:27.028Z,102903.41
2022-12-01T14:55:00.613Z,102904.09
2022-12-01T14:57:46.451Z,102911.16
2022-12-01T15:00:18.952Z,102888.06
2022-12-01T15:02:56.598Z,102897.91
2022-12-01T15:05:30.137Z,102904.28
2022-12-01T15:08:40.365Z,102904.31
2022-12-01T15:11:09.400Z,102906.47
2022-12-01T15:13:54.839Z,102909.16
2022-12-01T15:16:24.748Z,102904.63
2022-12-01T15:18:52.739Z,102910.94
2022-12-01T15:21:31.677Z,102907.53
2022-12-01T15:24:20.716Z,102908.34
2022-12-01T15:26:50.974Z,102911.75
2022-12-01T15:29:19.768Z,102916.41
2022-12-01T15:31:49.630Z,102917.44
2022-12-01T15:34:44.740Z,102917.13
2022-12-01T15:37:16.098Z,102915.47
2022-12-01T15:39:46.676Z,102917.50
2022-12-01T15:42:34.958Z,102911.16
2022-12-01T15:45:16.012Z,102911.19
2022-12-01T15:47:46.437Z,102911.03
2022-12-01T15:50:41.264Z,102903.88
2022-12-01T15:53:22.351Z,102904.13
2022-12-01T15:55:55.595Z,102905.03
2022-12-01T15:58:30.488Z,102902.97
2022-12-01T16:01:03.743Z,102898.75
2022-12-01T16:03:31.498Z,102907.63
2022-12-01T16:05:59.789Z,102904.06
2022-12-01T16:08:28.680Z,102896.91
2022-12-01T16:11:19.136Z,102910.50
2022-12-01T16:13:56.839Z,102900.75
2022-12-01T16:16:27.196Z,102896.13
2022-12-01T16:19:00.455Z,102894.06
2022-12-01T16:21:28.878Z,102894.13
2022-12-01T16:24:05.287Z,102895.28
2022-12-01T16:26:33.927Z,102888.16
2022-12-01T16:29:01.392Z,102886.19
2022-12-01T16:31:28.829Z,102887.22
2022-12-01T16:34:18.423Z,102887.13
2022-12-01T16:36:51.076Z,102888.94
2022-12-01T16:39:18.502Z,102878.78
2022-12-01T16:41:47.038Z,102887.06
2022-12-01T16:44:30.890Z,102888.94
2022-12-01T16:46:58.175Z,102888.91
2022-12-01T16:49:25.903Z,102893.47
2022-12-01T16:51:57.373Z,102882.53
2022-12-01T16:54:25.694Z,102887.78
2022-12-01T16:56:53.001Z,102888.03
2022-12-01T16:59:20.392Z,102885.38
2022-12-01T17:01:47.625Z,102880.75
2022-12-01T17:04:15.250Z,102883.66
2022-12-01T17:06:43.216Z,102879.72
2022-12-01T17:09:10.467Z,102882.44
2022-12-01T17:11:37.723Z,102881.88
2022-12-01T17:14:05.498Z,102885.34
2022-12-01T17:16:33.571Z,102882.59
2022-12-01T17:19:01.614Z,102881.47
2022-12-01T17:21:29.519Z,102874.31
2022-12-01T17:23:57.280Z,102881.53
2022-12-01T17:26:24.642Z,102878.06
2022-12-01T17:28:55.319Z,102870.91
2022-12-01T17:31:22.604Z,102881.69
2022-12-01T17:33:50.669Z,102870.06
2022-12-01T17:36:18.803Z,102876.44
2022-12-01T17:38:51.127Z,102881.63
2022-12-01T17:41:22.052Z,102873.50
2022-12-01T17:43:49.444Z,102874.38
2022-12-01T17:46:17.035Z,102874.66
2022-12-01T17:48:46.589Z,102875.38
2022-12-01T17:51:15.441Z,102864.78
2022-12-01T17:53:42.971Z,102869.03
2022-12-01T17:56:12.961Z,102861.06
2022-12-01T17:58:40.882Z,102865.28
2022-12-01T18:01:16.038Z,102863.59
2022-12-01T18:03:43.590Z,102859.25
2022-12-01T18:06:11.434Z,102864.53
2022-12-01T18:08:40.044Z,102867.31
2022-12-01T18:11:12.842Z,102869.22
2022-12-01T18:13:42.701Z,102859.88
2022-12-01T18:16:15.980Z,102862.75
2022-12-01T18:18:44.089Z,102871.69
2022-12-01T18:21:14.260Z,102852.94
2022-12-01T18:23:42.166Z,102855.53
2022-12-01T18:26:16.028Z,102853.69
2022-12-01T18:28:44.917Z,102854.81
2022-12-01T18:31:15.687Z,102850.31
2022-12-01T18:33:44.994Z,102851.97
2022-12-01T18:36:16.905Z,102850.25
2022-12-01T18:38:47.327Z,102854.56
2022-12-01T18:41:15.429Z,102852.03
2022-12-01T18:43:43.427Z,102853.03
2022-12-01T18:46:14.487Z,102854.81
2022-12-01T18:48:46.692Z,102845.00
2022-12-01T18:51:15.177Z,102844.09
2022-12-01T18:53:42.569Z,102848.56
2022-12-01T18:56:12.041Z,102843.13
2022-12-01T18:58:40.017Z,102839.63
2022-12-01T19:01:26.747Z,102839.38
2022-12-01T19:03:58.637Z,102831.16
2022-12-01T19:06:26.620Z,102832.06
2022-12-01T19:08:54.612Z,102833.03
2022-12-01T19:11:22.568Z,102828.56
2022-12-01T19:13:50.098Z,102828.63
2022-12-01T19:16:20.142Z,102836.84
2022-12-01T19:18:47.960Z,102827.84
2022-12-01T19:21:17.982Z,102827.59
2022-12-01T19:23:46.637Z,102829.47
2022-12-01T19:26:16.532Z,102834.97
2022-12-01T19:28:45.906Z,102818.69
2022-12-01T19:32:04.287Z,102829.53
2022-12-01T19:34:06.244Z,102817.84
2022-12-01T19:36:33.697Z,102820.50
2022-12-01T19:39:04.475Z,102806.16
2022-12-01T19:41:34.561Z,102807.81
2022-12-01T19:44:02.812Z,102806.00
2022-12-01T19:46:29.996Z,102811.53
2022-12-01T19:49:01.610Z,102806.09
2022-12-01T19:51:37.886Z,102800.81
2022-12-01T19:54:07.193Z,102796.25
2022-12-01T19:56:34.317Z,102796.59
2022-12-01T19:59:01.146Z,102797.53
2022-12-01T20:01:28.525Z,102786.50
2022-12-01T20:03:55.866Z,102783.81
2022-12-01T20:06:25.632Z,102788.75
2022-12-01T20:08:54.219Z,102783.19
2022-12-01T20:11:21.736Z,102786.94
2022-12-01T20:13:49.031Z,102783.28
2022-12-01T20:16:18.832Z,102781.25
2022-12-01T20:18:46.836Z,102774.13
2022-12-01T20:21:30.300Z,102766.13
2022-12-01T20:24:02.494Z,102774.44
2022-12-01T20:26:32.709Z,102776.88
2022-12-01T20:29:04.778Z,102770.84
2022-12-01T20:31:33.507Z,102766.34
2022-12-01T20:34:03.491Z,102772.63
2022-12-01T20:36:30.966Z,102769.09
2022-12-01T20:38:58.700Z,102761.16
2022-12-01T20:41:25.844Z,102754.59
2022-12-01T20:43:52.955Z,102752.97
2022-12-01T20:46:20.452Z,102755.72
2022-12-01T20:48:47.768Z,102761.22
2022-12-01T20:51:15.639Z,102755.97
2022-12-01T20:53:59.573Z,102763.94
2022-12-01T20:56:31.435Z,102766.63
2022-12-01T20:58:59.128Z,102761.56
2022-12-01T21:01:26.797Z,102765.97
2022-12-01T21:03:53.950Z,102769.44
2022-12-01T21:06:22.293Z,102766.59
2022-12-01T21:08:50.490Z,102760.41
2022-12-01T21:11:44.021Z,102757.91
2022-12-01T21:14:37.946Z,102764.06
2022-12-01T21:17:14.313Z,102764.91
2022-12-01T21:19:54.689Z,102761.31
2022-12-01T21:22:22.459Z,102766.63
2022-12-01T21:24:52.126Z,102759.72
2022-12-01T21:27:20.209Z,102753.44
2022-12-01T21:29:49.353Z,102758.88
2022-12-01T21:32:29.403Z,102768.38
2022-12-01T21:35:01.633Z,102757.84
2022-12-01T21:37:28.851Z,102760.78
2022-12-01T21:39:57.319Z,102760.75
2022-12-01T21:42:30.823Z,102758.81
2022-12-01T21:44:57.973Z,102751.72
2022-12-01T21:47:27.556Z,102760.63
2022-12-01T21:49:57.437Z,102764.09
2022-12-01T21:52:33.198Z,102761.41
2022-12-01T21:55:23.035Z,102759.78
2022-12-01T21:57:52.232Z,102758.97
2022-12-01T22:00:28.145Z,102754.59
2022-12-01T22:03:28.204Z,102757.13
2022-12-01T22:06:28.748Z,102755.50
2022-12-01T22:08:58.055Z,102759.94
2022-12-01T22:11:30.113Z,102756.41
2022-12-01T22:13:59.969Z,102753.88
2022-12-01T22:16:36.205Z,102761.97
2022-12-01T22:19:23.506Z,102763.09
2022-12-01T22:21:59.773Z,102755.16
2022-12-01T22:24:37.337Z,102764.03
2022-12-01T22:27:27.660Z,102757.94
2022-12-01T22:30:07.570Z,102762.31
2022-12-01T22:32:39.535Z,102755.00
2022-12-01T22:35:26.578Z,102755.16
2022-12-01T22:38:01.358Z,102743.41
2022-12-01T22:40:48.702Z,102745.97
2022-12-01T22:43:15.374Z,102738.06
2022-12-01T22:45:48.389Z,102739.00
2022-12-01T22:48:27.403Z,102721.63
2022-12-01T22:50:55.434Z,102734.41
2022-12-01T22:53:31.298Z,102720.94
2022-12-01T22:56:01.002Z,102730.91
2022-12-01T22:58:32.452Z,102718.09
2022-12-01T23:01:11.153Z,102720.16
2022-12-01T23:03:38.179Z,102717.38
2022-12-01T23:06:48.380Z,102725.53
2022-12-01T23:09:17.172Z,102721.94
2022-12-01T23:11:45.580Z,102728.31
2022-12-01T23:14:16.801Z,102722.88
2022-12-01T23:16:45.010Z,102723.72
2022-12-01T23:19:12.080Z,102712.16
2022-12-01T23:21:39.146Z,102723.72
2022-12-01T23:24:07.196Z,102722.19
2022-12-01T23:26:36.182Z,102715.13
2022-12-01T23:29:03.265Z,102716.97
2022-12-01T23:31:30.251Z,102711.53
2022-12-01T23:33:58.014Z,102721.47
2022-12-01T23:36:27.906Z,102712.53
2022-12-01T23:38:58.349Z,102716.16
2022-12-01T23:41:33.303Z,102720.66
2022-12-01T23:44:12.210Z,102712.56
2022-12-01T23:46:39.174Z,102713.59
2022-12-01T23:49:12.214Z,102717.13
2022-12-01T23:51:44.278Z,102716.28
2022-12-01T23:54:16.872Z,102721.63
2022-12-01T23:56:50.588Z,102721.72
2022-12-01T23:59:19.646Z,102728.94
